sensor_id;sensor_type;location;lat;lon;timestamp;P1;durP1;ratioP1;P2;durP2;ratioP2
81242;SDS011;70716;50.074;14.496;2023-07-30T00:02:02;5.07;;;2.05;;
81242;SDS011;70716;50.074;14.496;2023-07-30T00:04:28;4.00;;;1.55;;
81242;SDS011;70716;50.074;14.496;2023-07-30T00:06:53;5.30;;;1.83;;
81242;SDS011;70716;50.074;14.496;2023-07-30T00:09:18;4.95;;;1.80;;
81242;SDS011;70716;50.074;14.496;2023-07-30T00:11:47;3.70;;;1.67;;
81242;SDS011;70716;50.074;14.496;2023-07-30T00:14:12;4.85;;;1.77;;
81242;SDS011;70716;50.074;14.496;2023-07-30T00:16:37;4.05;;;1.60;;
81242;SDS011;70716;50.074;14.496;2023-07-30T00:19:03;3.28;;;1.70;;
81242;SDS011;70716;50.074;14.496;2023-07-30T00:21:28;4.25;;;1.83;;
81242;SDS011;70716;50.074;14.496;2023-07-30T00:23:54;4.70;;;1.92;;
81242;SDS011;70716;50.074;14.496;2023-07-30T00:26:19;4.82;;;2.05;;
81242;SDS011;70716;50.074;14.496;2023-07-30T00:28:45;3.88;;;1.40;;
81242;SDS011;70716;50.074;14.496;2023-07-30T00:31:10;5.05;;;1.60;;
81242;SDS011;70716;50.074;14.496;2023-07-30T00:33:35;4.40;;;1.70;;
81242;SDS011;70716;50.074;14.496;2023-07-30T00:36:01;4.00;;;1.80;;
81242;SDS011;70716;50.074;14.496;2023-07-30T00:38:26;3.45;;;1.80;;
81242;SDS011;70716;50.074;14.496;2023-07-30T00:40:52;5.32;;;1.85;;
81242;SDS011;70716;50.074;14.496;2023-07-30T00:43:18;3.78;;;1.63;;
81242;SDS011;70716;50.074;14.496;2023-07-30T00:45:44;4.15;;;1.60;;
81242;SDS011;70716;50.074;14.496;2023-07-30T00:48:10;3.65;;;1.70;;
81242;SDS011;70716;50.074;14.496;2023-07-30T00:50:40;4.45;;;1.90;;
81242;SDS011;70716;50.074;14.496;2023-07-30T00:53:13;5.22;;;1.92;;
81242;SDS011;70716;50.074;14.496;2023-07-30T00:55:40;4.22;;;1.90;;
81242;SDS011;70716;50.074;14.496;2023-07-30T00:58:09;4.70;;;1.80;;
81242;SDS011;70716;50.074;14.496;2023-07-30T01:00:35;4.32;;;1.95;;
81242;SDS011;70716;50.074;14.496;2023-07-30T01:03:00;5.78;;;2.03;;
81242;SDS011;70716;50.074;14.496;2023-07-30T01:05:26;4.32;;;1.70;;
81242;SDS011;70716;50.074;14.496;2023-07-30T01:07:51;5.07;;;1.70;;
81242;SDS011;70716;50.074;14.496;2023-07-30T01:10:19;6.05;;;1.63;;
81242;SDS011;70716;50.074;14.496;2023-07-30T01:12:46;5.18;;;1.90;;
81242;SDS011;70716;50.074;14.496;2023-07-30T01:15:12;4.88;;;2.00;;
81242;SDS011;70716;50.074;14.496;2023-07-30T01:17:38;4.85;;;1.95;;
81242;SDS011;70716;50.074;14.496;2023-07-30T01:20:07;4.30;;;1.70;;
81242;SDS011;70716;50.074;14.496;2023-07-30T01:22:33;5.43;;;2.28;;
81242;SDS011;70716;50.074;14.496;2023-07-30T01:24:58;4.22;;;2.35;;
81242;SDS011;70716;50.074;14.496;2023-07-30T01:27:25;5.15;;;2.15;;
81242;SDS011;70716;50.074;14.496;2023-07-30T01:29:53;4.68;;;1.70;;
81242;SDS011;70716;50.074;14.496;2023-07-30T01:32:28;4.35;;;1.92;;
81242;SDS011;70716;50.074;14.496;2023-07-30T01:38:25;4.93;;;1.98;;
81242;SDS011;70716;50.074;14.496;2023-07-30T01:47:37;4.57;;;1.95;;
81242;SDS011;70716;50.074;14.496;2023-07-30T01:50:09;5.57;;;1.95;;
81242;SDS011;70716;50.074;14.496;2023-07-30T01:56:54;5.35;;;2.20;;
81242;SDS011;70716;50.074;14.496;2023-07-30T01:59:50;5.72;;;2.50;;
81242;SDS011;70716;50.074;14.496;2023-07-30T02:12:25;4.75;;;2.40;;
81242;SDS011;70716;50.074;14.496;2023-07-30T02:15:16;5.53;;;2.47;;
81242;SDS011;70716;50.074;14.496;2023-07-30T02:18:20;5.55;;;2.75;;
81242;SDS011;70716;50.074;14.496;2023-07-30T02:24:44;8.02;;;2.70;;
81242;SDS011;70716;50.074;14.496;2023-07-30T02:30:51;5.75;;;2.33;;
81242;SDS011;70716;50.074;14.496;2023-07-30T02:33:43;5.82;;;2.75;;
81242;SDS011;70716;50.074;14.496;2023-07-30T02:37:56;5.80;;;2.42;;
81242;SDS011;70716;50.074;14.496;2023-07-30T02:50:07;5.25;;;2.50;;
81242;SDS011;70716;50.074;14.496;2023-07-30T03:00:25;6.38;;;2.65;;
81242;SDS011;70716;50.074;14.496;2023-07-30T03:02:56;6.00;;;2.80;;
81242;SDS011;70716;50.074;14.496;2023-07-30T03:05:42;5.45;;;2.80;;
81242;SDS011;70716;50.074;14.496;2023-07-30T03:08:32;5.28;;;2.80;;
81242;SDS011;70716;50.074;14.496;2023-07-30T03:12:10;4.50;;;2.10;;
81242;SDS011;70716;50.074;14.496;2023-07-30T03:14:55;5.22;;;2.30;;
81242;SDS011;70716;50.074;14.496;2023-07-30T03:18:20;7.30;;;2.40;;
81242;SDS011;70716;50.074;14.496;2023-07-30T03:27:14;5.22;;;2.30;;
81242;SDS011;70716;50.074;14.496;2023-07-30T03:36:11;5.82;;;2.40;;
81242;SDS011;70716;50.074;14.496;2023-07-30T03:42:39;5.97;;;2.58;;
81242;SDS011;70716;50.074;14.496;2023-07-30T03:46:04;5.72;;;2.55;;
81242;SDS011;70716;50.074;14.496;2023-07-30T03:52:01;6.05;;;2.50;;
81242;SDS011;70716;50.074;14.496;2023-07-30T03:54:36;5.00;;;2.60;;
81242;SDS011;70716;50.074;14.496;2023-07-30T03:57:25;5.20;;;2.30;;
81242;SDS011;70716;50.074;14.496;2023-07-30T03:59:58;4.40;;;2.03;;
81242;SDS011;70716;50.074;14.496;2023-07-30T04:02:26;8.30;;;2.42;;
81242;SDS011;70716;50.074;14.496;2023-07-30T04:04:58;5.65;;;2.22;;
81242;SDS011;70716;50.074;14.496;2023-07-30T04:10:42;5.88;;;2.20;;
81242;SDS011;70716;50.074;14.496;2023-07-30T04:13:51;5.57;;;2.30;;
81242;SDS011;70716;50.074;14.496;2023-07-30T04:19:38;4.90;;;2.30;;
81242;SDS011;70716;50.074;14.496;2023-07-30T04:22:07;5.10;;;2.45;;
81242;SDS011;70716;50.074;14.496;2023-07-30T04:25:05;4.43;;;2.20;;
81242;SDS011;70716;50.074;14.496;2023-07-30T04:28:02;5.47;;;2.33;;
81242;SDS011;70716;50.074;14.496;2023-07-30T04:30:50;4.78;;;2.10;;
81242;SDS011;70716;50.074;14.496;2023-07-30T04:33:42;5.65;;;2.58;;
81242;SDS011;70716;50.074;14.496;2023-07-30T04:40:20;5.93;;;2.17;;
81242;SDS011;70716;50.074;14.496;2023-07-30T04:43:42;6.70;;;2.03;;
81242;SDS011;70716;50.074;14.496;2023-07-30T04:46:28;4.10;;;2.00;;
81242;SDS011;70716;50.074;14.496;2023-07-30T04:52:03;5.20;;;2.03;;
81242;SDS011;70716;50.074;14.496;2023-07-30T04:54:38;5.30;;;2.03;;
81242;SDS011;70716;50.074;14.496;2023-07-30T04:57:45;5.05;;;2.45;;
81242;SDS011;70716;50.074;14.496;2023-07-30T05:00:30;5.72;;;2.10;;
81242;SDS011;70716;50.074;14.496;2023-07-30T05:09:36;5.20;;;2.25;;
81242;SDS011;70716;50.074;14.496;2023-07-30T05:12:50;6.28;;;2.47;;
81242;SDS011;70716;50.074;14.496;2023-07-30T05:18:41;6.22;;;2.03;;
81242;SDS011;70716;50.074;14.496;2023-07-30T05:21:42;5.10;;;2.10;;
81242;SDS011;70716;50.074;14.496;2023-07-30T05:24:24;6.18;;;2.22;;
81242;SDS011;70716;50.074;14.496;2023-07-30T05:27:02;5.40;;;2.13;;
81242;SDS011;70716;50.074;14.496;2023-07-30T05:29:40;4.38;;;2.00;;
81242;SDS011;70716;50.074;14.496;2023-07-30T05:32:08;4.00;;;1.73;;
81242;SDS011;70716;50.074;14.496;2023-07-30T05:38:15;5.35;;;2.35;;
81242;SDS011;70716;50.074;14.496;2023-07-30T05:44:01;5.10;;;2.08;;
81242;SDS011;70716;50.074;14.496;2023-07-30T05:46:52;4.53;;;2.00;;
81242;SDS011;70716;50.074;14.496;2023-07-30T05:49:49;4.30;;;2.00;;
81242;SDS011;70716;50.074;14.496;2023-07-30T05:52:57;5.60;;;2.00;;
81242;SDS011;70716;50.074;14.496;2023-07-30T05:55:50;6.43;;;2.10;;
81242;SDS011;70716;50.074;14.496;2023-07-30T05:58:44;4.57;;;2.50;;
81242;SDS011;70716;50.074;14.496;2023-07-30T06:01:15;4.78;;;1.70;;
81242;SDS011;70716;50.074;14.496;2023-07-30T06:04:04;6.55;;;2.00;;
81242;SDS011;70716;50.074;14.496;2023-07-30T06:06:53;4.80;;;2.40;;
81242;SDS011;70716;50.074;14.496;2023-07-30T06:09:43;5.13;;;2.28;;
81242;SDS011;70716;50.074;14.496;2023-07-30T06:12:28;4.28;;;2.00;;
81242;SDS011;70716;50.074;14.496;2023-07-30T06:15:05;5.68;;;2.10;;
81242;SDS011;70716;50.074;14.496;2023-07-30T06:18:05;4.28;;;2.00;;
81242;SDS011;70716;50.074;14.496;2023-07-30T06:20:52;5.35;;;1.95;;
81242;SDS011;70716;50.074;14.496;2023-07-30T06:23:20;5.03;;;2.05;;
81242;SDS011;70716;50.074;14.496;2023-07-30T06:26:06;5.10;;;2.10;;
81242;SDS011;70716;50.074;14.496;2023-07-30T06:28:32;6.15;;;2.30;;
81242;SDS011;70716;50.074;14.496;2023-07-30T06:35:05;6.47;;;2.13;;
81242;SDS011;70716;50.074;14.496;2023-07-30T06:37:39;4.65;;;2.10;;
81242;SDS011;70716;50.074;14.496;2023-07-30T06:40:14;5.40;;;2.20;;
81242;SDS011;70716;50.074;14.496;2023-07-30T06:42:49;4.72;;;2.10;;
81242;SDS011;70716;50.074;14.496;2023-07-30T06:48:23;4.22;;;2.10;;
81242;SDS011;70716;50.074;14.496;2023-07-30T06:51:01;4.50;;;2.20;;
81242;SDS011;70716;50.074;14.496;2023-07-30T06:56:55;4.47;;;1.88;;
81242;SDS011;70716;50.074;14.496;2023-07-30T07:03:16;5.15;;;2.10;;
81242;SDS011;70716;50.074;14.496;2023-07-30T07:06:13;5.53;;;2.15;;
81242;SDS011;70716;50.074;14.496;2023-07-30T07:09:04;5.32;;;2.28;;
81242;SDS011;70716;50.074;14.496;2023-07-30T07:18:54;5.65;;;1.77;;
81242;SDS011;70716;50.074;14.496;2023-07-30T07:25:44;5.20;;;1.95;;
81242;SDS011;70716;50.074;14.496;2023-07-30T07:32:48;4.22;;;2.00;;
81242;SDS011;70716;50.074;14.496;2023-07-30T07:36:10;4.93;;;2.40;;
81242;SDS011;70716;50.074;14.496;2023-07-30T07:39:23;5.15;;;2.28;;
81242;SDS011;70716;50.074;14.496;2023-07-30T07:48:14;8.27;;;3.08;;
81242;SDS011;70716;50.074;14.496;2023-07-30T07:59:55;6.65;;;1.73;;
81242;SDS011;70716;50.074;14.496;2023-07-30T08:04:48;2.85;;;1.20;;
81242;SDS011;70716;50.074;14.496;2023-07-30T08:07:13;2.88;;;1.02;;
81242;SDS011;70716;50.074;14.496;2023-07-30T08:09:39;3.88;;;1.10;;
81242;SDS011;70716;50.074;14.496;2023-07-30T08:12:19;3.50;;;1.40;;
81242;SDS011;70716;50.074;14.496;2023-07-30T08:14:45;5.57;;;1.40;;
81242;SDS011;70716;50.074;14.496;2023-07-30T08:17:34;4.10;;;1.63;;
81242;SDS011;70716;50.074;14.496;2023-07-30T08:20:02;3.38;;;1.20;;
81242;SDS011;70716;50.074;14.496;2023-07-30T08:28:11;3.78;;;1.33;;
81242;SDS011;70716;50.074;14.496;2023-07-30T08:34:15;4.32;;;1.45;;
81242;SDS011;70716;50.074;14.496;2023-07-30T08:37:00;5.40;;;2.00;;
81242;SDS011;70716;50.074;14.496;2023-07-30T08:39:26;4.47;;;1.48;;
81242;SDS011;70716;50.074;14.496;2023-07-30T08:41:54;4.32;;;1.45;;
81242;SDS011;70716;50.074;14.496;2023-07-30T08:44:32;5.65;;;1.60;;
81242;SDS011;70716;50.074;14.496;2023-07-30T08:46:57;3.60;;;1.25;;
81242;SDS011;70716;50.074;14.496;2023-07-30T08:49:23;5.30;;;1.60;;
81242;SDS011;70716;50.074;14.496;2023-07-30T08:51:59;3.78;;;1.50;;
81242;SDS011;70716;50.074;14.496;2023-07-30T08:54:46;5.22;;;1.50;;
81242;SDS011;70716;50.074;14.496;2023-07-30T08:57:33;4.78;;;1.80;;
81242;SDS011;70716;50.074;14.496;2023-07-30T09:00:30;4.55;;;1.42;;
81242;SDS011;70716;50.074;14.496;2023-07-30T09:03:04;6.35;;;1.50;;
81242;SDS011;70716;50.074;14.496;2023-07-30T09:05:52;4.43;;;1.52;;
81242;SDS011;70716;50.074;14.496;2023-07-30T09:08:18;3.72;;;1.42;;
81242;SDS011;70716;50.074;14.496;2023-07-30T09:11:05;4.80;;;1.35;;
81242;SDS011;70716;50.074;14.496;2023-07-30T09:13:46;3.95;;;1.70;;
81242;SDS011;70716;50.074;14.496;2023-07-30T09:16:37;3.25;;;1.42;;
81242;SDS011;70716;50.074;14.496;2023-07-30T09:19:03;6.63;;;2.10;;
81242;SDS011;70716;50.074;14.496;2023-07-30T09:21:34;4.85;;;2.08;;
81242;SDS011;70716;50.074;14.496;2023-07-30T09:24:14;5.13;;;1.85;;
81242;SDS011;70716;50.074;14.496;2023-07-30T09:26:55;5.68;;;2.00;;
81242;SDS011;70716;50.074;14.496;2023-07-30T09:29:58;6.28;;;2.10;;
81242;SDS011;70716;50.074;14.496;2023-07-30T09:32:31;5.63;;;2.17;;
81242;SDS011;70716;50.074;14.496;2023-07-30T09:38:02;4.50;;;2.20;;
81242;SDS011;70716;50.074;14.496;2023-07-30T09:40:32;6.18;;;2.42;;
81242;SDS011;70716;50.074;14.496;2023-07-30T09:43:05;6.20;;;2.40;;
81242;SDS011;70716;50.074;14.496;2023-07-30T09:45:36;6.35;;;2.60;;
81242;SDS011;70716;50.074;14.496;2023-07-30T09:48:03;4.53;;;2.20;;
81242;SDS011;70716;50.074;14.496;2023-07-30T09:50:44;4.88;;;2.35;;
81242;SDS011;70716;50.074;14.496;2023-07-30T09:53:16;4.88;;;2.22;;
81242;SDS011;70716;50.074;14.496;2023-07-30T09:56:02;7.03;;;2.90;;
81242;SDS011;70716;50.074;14.496;2023-07-30T09:58:39;6.47;;;2.50;;
81242;SDS011;70716;50.074;14.496;2023-07-30T10:01:07;5.38;;;2.80;;
81242;SDS011;70716;50.074;14.496;2023-07-30T10:03:42;4.75;;;2.40;;
81242;SDS011;70716;50.074;14.496;2023-07-30T10:06:13;5.95;;;2.40;;
81242;SDS011;70716;50.074;14.496;2023-07-30T10:08:39;4.65;;;2.50;;
81242;SDS011;70716;50.074;14.496;2023-07-30T10:11:07;4.90;;;2.63;;
81242;SDS011;70716;50.074;14.496;2023-07-30T10:13:42;5.15;;;2.50;;
81242;SDS011;70716;50.074;14.496;2023-07-30T10:16:28;5.45;;;2.70;;
81242;SDS011;70716;50.074;14.496;2023-07-30T10:22:31;5.93;;;2.50;;
81242;SDS011;70716;50.074;14.496;2023-07-30T10:25:07;5.32;;;2.95;;
81242;SDS011;70716;50.074;14.496;2023-07-30T10:28:03;5.18;;;2.38;;
81242;SDS011;70716;50.074;14.496;2023-07-30T10:30:34;5.03;;;2.40;;
81242;SDS011;70716;50.074;14.496;2023-07-30T10:33:21;5.07;;;2.70;;
81242;SDS011;70716;50.074;14.496;2023-07-30T10:36:18;4.15;;;2.35;;
81242;SDS011;70716;50.074;14.496;2023-07-30T10:39:00;5.00;;;2.42;;
81242;SDS011;70716;50.074;14.496;2023-07-30T10:41:50;4.75;;;2.60;;
81242;SDS011;70716;50.074;14.496;2023-07-30T10:44:27;5.30;;;2.70;;
81242;SDS011;70716;50.074;14.496;2023-07-30T10:47:01;5.70;;;2.60;;
81242;SDS011;70716;50.074;14.496;2023-07-30T10:49:38;5.40;;;2.58;;
81242;SDS011;70716;50.074;14.496;2023-07-30T10:52:14;4.78;;;2.00;;
81242;SDS011;70716;50.074;14.496;2023-07-30T10:55:03;4.28;;;2.13;;
81242;SDS011;70716;50.074;14.496;2023-07-30T10:57:51;4.45;;;2.30;;
81242;SDS011;70716;50.074;14.496;2023-07-30T11:00:17;4.07;;;2.15;;
81242;SDS011;70716;50.074;14.496;2023-07-30T11:03:03;5.30;;;2.38;;
81242;SDS011;70716;50.074;14.496;2023-07-30T11:18:26;7.35;;;2.38;;
81242;SDS011;70716;50.074;14.496;2023-07-30T11:28:34;4.53;;;1.95;;
81242;SDS011;70716;50.074;14.496;2023-07-30T11:49:15;4.88;;;2.10;;
81242;SDS011;70716;50.074;14.496;2023-07-30T11:51:35;3.72;;;1.90;;
81242;SDS011;70716;50.074;14.496;2023-07-30T11:54:07;3.45;;;1.88;;
81242;SDS011;70716;50.074;14.496;2023-07-30T11:56:33;4.80;;;1.88;;
81242;SDS011;70716;50.074;14.496;2023-07-30T11:59:06;4.25;;;1.90;;
81242;SDS011;70716;50.074;14.496;2023-07-30T12:02:16;3.85;;;2.00;;
81242;SDS011;70716;50.074;14.496;2023-07-30T12:05:01;3.85;;;1.90;;
81242;SDS011;70716;50.074;14.496;2023-07-30T12:07:39;6.40;;;2.10;;
81242;SDS011;70716;50.074;14.496;2023-07-30T12:13:20;5.15;;;2.10;;
81242;SDS011;70716;50.074;14.496;2023-07-30T12:15:55;4.18;;;1.77;;
81242;SDS011;70716;50.074;14.496;2023-07-30T12:18:27;4.47;;;1.80;;
81242;SDS011;70716;50.074;14.496;2023-07-30T12:21:04;4.18;;;1.90;;
81242;SDS011;70716;50.074;14.496;2023-07-30T12:35:49;3.60;;;1.48;;
81242;SDS011;70716;50.074;14.496;2023-07-30T12:42:02;3.75;;;1.60;;
81242;SDS011;70716;50.074;14.496;2023-07-30T12:45:06;2.88;;;1.58;;
81242;SDS011;70716;50.074;14.496;2023-07-30T13:18:23;4.60;;;1.80;;
81242;SDS011;70716;50.074;14.496;2023-07-30T13:36:54;3.67;;;1.80;;
81242;SDS011;70716;50.074;14.496;2023-07-30T13:39:50;3.33;;;1.65;;
81242;SDS011;70716;50.074;14.496;2023-07-30T13:49:04;2.90;;;1.58;;
81242;SDS011;70716;50.074;14.496;2023-07-30T14:02:06;4.03;;;1.90;;
81242;SDS011;70716;50.074;14.496;2023-07-30T14:17:56;3.30;;;1.80;;
81242;SDS011;70716;50.074;14.496;2023-07-30T14:30:33;3.30;;;1.63;;
81242;SDS011;70716;50.074;14.496;2023-07-30T14:37:18;4.57;;;1.73;;
81242;SDS011;70716;50.074;14.496;2023-07-30T14:46:55;3.05;;;1.30;;
81242;SDS011;70716;50.074;14.496;2023-07-30T14:49:46;3.67;;;1.80;;
81242;SDS011;70716;50.074;14.496;2023-07-30T14:52:26;4.30;;;1.60;;
81242;SDS011;70716;50.074;14.496;2023-07-30T14:55:08;3.55;;;1.80;;
81242;SDS011;70716;50.074;14.496;2023-07-30T15:04:25;4.05;;;1.73;;
81242;SDS011;70716;50.074;14.496;2023-07-30T15:10:11;3.80;;;1.80;;
81242;SDS011;70716;50.074;14.496;2023-07-30T15:13:21;4.28;;;2.00;;
81242;SDS011;70716;50.074;14.496;2023-07-30T15:16:31;2.80;;;1.60;;
81242;SDS011;70716;50.074;14.496;2023-07-30T15:19:07;3.88;;;2.22;;
81242;SDS011;70716;50.074;14.496;2023-07-30T15:24:33;3.53;;;1.73;;
81242;SDS011;70716;50.074;14.496;2023-07-30T15:27:29;4.20;;;1.70;;
81242;SDS011;70716;50.074;14.496;2023-07-30T15:29:55;3.58;;;1.85;;
81242;SDS011;70716;50.074;14.496;2023-07-30T15:32:23;3.83;;;1.70;;
81242;SDS011;70716;50.074;14.496;2023-07-30T15:35:24;3.28;;;1.70;;
81242;SDS011;70716;50.074;14.496;2023-07-30T15:44:05;3.28;;;1.50;;
81242;SDS011;70716;50.074;14.496;2023-07-30T15:53:50;3.63;;;1.75;;
81242;SDS011;70716;50.074;14.496;2023-07-30T15:56:47;2.60;;;1.38;;
81242;SDS011;70716;50.074;14.496;2023-07-30T15:59:33;2.88;;;1.30;;
81242;SDS011;70716;50.074;14.496;2023-07-30T16:02:37;3.03;;;1.40;;
81242;SDS011;70716;50.074;14.496;2023-07-30T16:28:32;4.03;;;1.70;;
81242;SDS011;70716;50.074;14.496;2023-07-30T16:31:38;3.97;;;1.50;;
81242;SDS011;70716;50.074;14.496;2023-07-30T16:34:18;2.80;;;1.40;;
81242;SDS011;70716;50.074;14.496;2023-07-30T16:50:47;2.65;;;1.08;;
81242;SDS011;70716;50.074;14.496;2023-07-30T16:56:44;5.05;;;1.65;;
81242;SDS011;70716;50.074;14.496;2023-07-30T16:59:13;3.83;;;1.10;;
81242;SDS011;70716;50.074;14.496;2023-07-30T17:02:04;3.72;;;1.27;;
81242;SDS011;70716;50.074;14.496;2023-07-30T17:04:36;3.78;;;1.20;;
81242;SDS011;70716;50.074;14.496;2023-07-30T17:07:05;3.78;;;1.30;;
81242;SDS011;70716;50.074;14.496;2023-07-30T17:09:31;4.18;;;1.45;;
81242;SDS011;70716;50.074;14.496;2023-07-30T17:11:57;3.45;;;1.60;;
81242;SDS011;70716;50.074;14.496;2023-07-30T17:14:23;2.60;;;1.30;;
81242;SDS011;70716;50.074;14.496;2023-07-30T17:16:57;4.00;;;1.23;;
81242;SDS011;70716;50.074;14.496;2023-07-30T17:19:28;2.92;;;1.20;;
81242;SDS011;70716;50.074;14.496;2023-07-30T17:22:03;3.60;;;1.33;;
81242;SDS011;70716;50.074;14.496;2023-07-30T17:25:01;3.15;;;1.20;;
81242;SDS011;70716;50.074;14.496;2023-07-30T17:27:51;3.70;;;1.40;;
81242;SDS011;70716;50.074;14.496;2023-07-30T17:30:17;2.75;;;1.17;;
81242;SDS011;70716;50.074;14.496;2023-07-30T17:32:45;2.88;;;1.20;;
81242;SDS011;70716;50.074;14.496;2023-07-30T17:35:11;4.43;;;1.50;;
81242;SDS011;70716;50.074;14.496;2023-07-30T17:37:40;5.28;;;1.70;;
81242;SDS011;70716;50.074;14.496;2023-07-30T17:40:11;4.00;;;1.60;;
81242;SDS011;70716;50.074;14.496;2023-07-30T17:42:40;4.53;;;1.73;;
81242;SDS011;70716;50.074;14.496;2023-07-30T17:45:12;3.03;;;1.40;;
81242;SDS011;70716;50.074;14.496;2023-07-30T17:48:04;3.65;;;1.50;;
81242;SDS011;70716;50.074;14.496;2023-07-30T17:50:30;4.10;;;1.48;;
81242;SDS011;70716;50.074;14.496;2023-07-30T17:53:02;4.25;;;1.85;;
81242;SDS011;70716;50.074;14.496;2023-07-30T17:55:27;6.13;;;1.70;;
81242;SDS011;70716;50.074;14.496;2023-07-30T17:57:54;4.38;;;1.80;;
81242;SDS011;70716;50.074;14.496;2023-07-30T18:00:23;5.20;;;1.90;;
81242;SDS011;70716;50.074;14.496;2023-07-30T18:02:50;5.55;;;1.90;;
81242;SDS011;70716;50.074;14.496;2023-07-30T18:05:36;4.47;;;2.00;;
81242;SDS011;70716;50.074;14.496;2023-07-30T18:08:02;4.13;;;2.08;;
81242;SDS011;70716;50.074;14.496;2023-07-30T18:10:40;3.95;;;1.77;;
81242;SDS011;70716;50.074;14.496;2023-07-30T18:16:32;3.88;;;1.80;;
81242;SDS011;70716;50.074;14.496;2023-07-30T18:18:57;4.55;;;1.92;;
81242;SDS011;70716;50.074;14.496;2023-07-30T18:21:48;3.10;;;1.48;;
81242;SDS011;70716;50.074;14.496;2023-07-30T18:24:14;4.60;;;1.70;;
81242;SDS011;70716;50.074;14.496;2023-07-30T18:26:42;3.50;;;1.40;;
81242;SDS011;70716;50.074;14.496;2023-07-30T18:29:28;4.40;;;1.60;;
81242;SDS011;70716;50.074;14.496;2023-07-30T18:32:12;4.32;;;1.85;;
81242;SDS011;70716;50.074;14.496;2023-07-30T18:35:01;3.75;;;1.50;;
81242;SDS011;70716;50.074;14.496;2023-07-30T18:37:30;4.50;;;1.70;;
81242;SDS011;70716;50.074;14.496;2023-07-30T18:40:02;4.93;;;1.70;;
81242;SDS011;70716;50.074;14.496;2023-07-30T18:42:40;4.75;;;1.88;;
81242;SDS011;70716;50.074;14.496;2023-07-30T18:47:49;2.88;;;1.40;;
81242;SDS011;70716;50.074;14.496;2023-07-30T18:53:43;4.72;;;1.80;;
81242;SDS011;70716;50.074;14.496;2023-07-30T18:56:21;4.75;;;1.50;;
81242;SDS011;70716;50.074;14.496;2023-07-30T19:13:20;5.35;;;2.10;;
81242;SDS011;70716;50.074;14.496;2023-07-30T19:16:35;4.88;;;1.80;;
81242;SDS011;70716;50.074;14.496;2023-07-30T19:26:13;4.35;;;1.80;;
81242;SDS011;70716;50.074;14.496;2023-07-30T19:29:06;4.25;;;1.92;;
81242;SDS011;70716;50.074;14.496;2023-07-30T19:34:48;5.43;;;1.85;;
81242;SDS011;70716;50.074;14.496;2023-07-30T19:43:06;4.45;;;1.70;;
81242;SDS011;70716;50.074;14.496;2023-07-30T19:45:53;3.97;;;1.85;;
81242;SDS011;70716;50.074;14.496;2023-07-30T19:51:11;4.15;;;1.83;;
81242;SDS011;70716;50.074;14.496;2023-07-30T19:54:30;4.63;;;2.00;;
81242;SDS011;70716;50.074;14.496;2023-07-30T19:56:58;5.10;;;1.95;;
81242;SDS011;70716;50.074;14.496;2023-07-30T19:59:33;4.00;;;1.70;;
81242;SDS011;70716;50.074;14.496;2023-07-30T20:01:58;5.25;;;1.83;;
81242;SDS011;70716;50.074;14.496;2023-07-30T20:04:33;4.07;;;1.48;;
81242;SDS011;70716;50.074;14.496;2023-07-30T20:07:11;5.45;;;1.98;;
81242;SDS011;70716;50.074;14.496;2023-07-30T20:09:59;7.07;;;1.63;;
81242;SDS011;70716;50.074;14.496;2023-07-30T20:12:48;5.68;;;1.67;;
81242;SDS011;70716;50.074;14.496;2023-07-30T20:15:43;4.60;;;1.67;;
81242;SDS011;70716;50.074;14.496;2023-07-30T20:20:58;3.50;;;1.55;;
81242;SDS011;70716;50.074;14.496;2023-07-30T20:23:23;5.45;;;1.67;;
81242;SDS011;70716;50.074;14.496;2023-07-30T20:29:32;4.28;;;1.60;;
81242;SDS011;70716;50.074;14.496;2023-07-30T20:33:14;4.55;;;1.70;;
81242;SDS011;70716;50.074;14.496;2023-07-30T20:35:45;3.92;;;1.60;;
81242;SDS011;70716;50.074;14.496;2023-07-30T20:38:31;5.63;;;1.90;;
81242;SDS011;70716;50.074;14.496;2023-07-30T20:41:13;4.95;;;1.98;;
81242;SDS011;70716;50.074;14.496;2023-07-30T20:43:39;4.53;;;1.80;;
81242;SDS011;70716;50.074;14.496;2023-07-30T20:46:30;6.63;;;2.15;;
81242;SDS011;70716;50.074;14.496;2023-07-30T20:48:59;4.88;;;1.90;;
81242;SDS011;70716;50.074;14.496;2023-07-30T20:51:27;6.75;;;1.98;;
81242;SDS011;70716;50.074;14.496;2023-07-30T21:00:24;4.43;;;1.77;;
81242;SDS011;70716;50.074;14.496;2023-07-30T21:06:06;4.38;;;1.80;;
81242;SDS011;70716;50.074;14.496;2023-07-30T21:15:54;5.57;;;2.00;;
81242;SDS011;70716;50.074;14.496;2023-07-30T21:21:39;4.50;;;2.33;;
81242;SDS011;70716;50.074;14.496;2023-07-30T21:24:08;4.30;;;1.90;;
81242;SDS011;70716;50.074;14.496;2023-07-30T21:26:34;5.50;;;2.03;;
81242;SDS011;70716;50.074;14.496;2023-07-30T21:29:26;5.32;;;2.33;;
81242;SDS011;70716;50.074;14.496;2023-07-30T21:32:42;5.97;;;2.05;;
81242;SDS011;70716;50.074;14.496;2023-07-30T21:38:52;5.00;;;1.95;;
81242;SDS011;70716;50.074;14.496;2023-07-30T21:48:07;5.38;;;2.08;;
81242;SDS011;70716;50.074;14.496;2023-07-30T21:58:17;6.05;;;1.80;;
81242;SDS011;70716;50.074;14.496;2023-07-30T22:00:47;6.13;;;2.03;;
81242;SDS011;70716;50.074;14.496;2023-07-30T22:07:06;5.78;;;1.90;;
81242;SDS011;70716;50.074;14.496;2023-07-30T22:16:50;4.88;;;1.90;;
81242;SDS011;70716;50.074;14.496;2023-07-30T22:23:33;4.65;;;1.92;;
81242;SDS011;70716;50.074;14.496;2023-07-30T22:33:30;4.57;;;1.70;;
81242;SDS011;70716;50.074;14.496;2023-07-30T22:36:13;5.15;;;1.92;;
81242;SDS011;70716;50.074;14.496;2023-07-30T22:39:12;5.43;;;2.20;;
81242;SDS011;70716;50.074;14.496;2023-07-30T22:45:01;4.13;;;1.80;;
81242;SDS011;70716;50.074;14.496;2023-07-30T23:00:06;5.80;;;1.95;;
81242;SDS011;70716;50.074;14.496;2023-07-30T23:09:42;4.65;;;1.88;;
81242;SDS011;70716;50.074;14.496;2023-07-30T23:12:28;5.13;;;1.60;;
81242;SDS011;70716;50.074;14.496;2023-07-30T23:15:37;4.18;;;1.70;;
81242;SDS011;70716;50.074;14.496;2023-07-30T23:21:52;5.22;;;1.85;;
81242;SDS011;70716;50.074;14.496;2023-07-30T23:28:10;4.60;;;1.63;;
81242;SDS011;70716;50.074;14.496;2023-07-30T23:33:56;4.45;;;1.85;;
81242;SDS011;70716;50.074;14.496;2023-07-30T23:37:11;4.55;;;1.88;;
81242;SDS011;70716;50.074;14.496;2023-07-30T23:43:33;5.10;;;1.60;;
